Time;durP1;ratioP1;P1;durP2;ratioP2;P2;SDS_P1;SDS_P2;PMS_P1;PMS_P2;Temp;Humidity;BMP_temperature;BMP_pressure;BME280_temperature;BME280_humidity;BME280_pressure;Samples;Min_cycle;Max_cycle;Signal;HPM_P1;HPM_P2
2023/01/10 00:01:57;;;;;;;23.75;4.63;;;;;;;5.11;100.00;101044.97;5040161;28;20048;-71
2023/01/10 00:04:28;;;;;;;26.33;4.85;;;;;;;5.11;100.00;101038.81;5033334;28;20167;-72
2023/01/10 00:06:54;;;;;;;18.02;4.32;;;;;;;5.11;100.00;101052.03;5023029;28;20517;-71
2023/01/10 00:09:20;;;;;;;24.73;5.55;;;;;;;5.13;100.00;101048.44;5013924;28;20134;-71
2023/01/10 00:14:32;;;;;;;22.35;4.15;;;;;;;5.02;100.00;101065.59;5038904;28;20049;-72
2023/01/10 00:16:57;;;;;;;18.50;3.75;;;;;;;4.98;100.00;101074.56;5022287;28;20111;-71
2023/01/10 00:19:23;;;;;;;14.93;4.38;;;;;;;4.92;100.00;101079.16;5040149;28;20048;-71
2023/01/10 00:21:48;;;;;;;16.27;4.32;;;;;;;5.10;100.00;101087.31;5040789;28;20048;-72
2023/01/10 00:24:21;;;;;;;21.42;4.25;;;;;;;5.06;100.00;101085.72;5034695;28;20049;-71
2023/01/10 00:26:50;;;;;;;22.30;4.40;;;;;;;4.97;100.00;101096.59;5032291;28;20894;-72
2023/01/10 00:29:20;;;;;;;19.00;4.80;;;;;;;4.93;100.00;101093.22;5008072;28;20069;-72
2023/01/10 00:31:47;;;;;;;24.98;4.78;;;;;;;4.92;100.00;101094.16;5028169;28;20494;-72
2023/01/10 00:34:13;;;;;;;26.20;5.40;;;;;;;4.92;100.00;101104.72;5026637;28;20079;-71
2023/01/10 00:36:38;;;;;;;22.17;5.55;;;;;;;5.01;100.00;101114.94;5032637;28;20941;-71
2023/01/10 00:39:04;;;;;;;21.38;5.05;;;;;;;5.07;100.00;101108.56;5040005;28;20045;-72
2023/01/10 00:44:14;;;;;;;35.22;5.28;;;;;;;5.30;100.00;101123.59;5013247;28;20134;-72
2023/01/10 00:46:39;;;;;;;18.90;4.10;;;;;;;5.38;100.00;101132.13;5029022;28;20045;-72
2023/01/10 00:49:07;;;;;;;17.83;4.15;;;;;;;5.40;100.00;101127.63;5035753;28;20041;-72
2023/01/10 00:51:32;;;;;;;31.05;4.85;;;;;;;5.40;100.00;101131.13;5038311;28;20053;-71
2023/01/10 00:53:58;;;;;;;11.48;3.85;;;;;;;5.30;100.00;101132.41;5040309;28;20156;-72
2023/01/10 00:56:23;;;;;;;21.92;4.43;;;;;;;5.18;100.00;101133.72;5037343;28;20041;-71
2023/01/10 00:58:49;;;;;;;19.42;4.80;;;;;;;5.17;100.00;101139.94;5032434;28;20457;-71
2023/01/10 01:01:14;;;;;;;23.60;3.88;;;;;;;5.13;100.00;101140.94;5040108;28;21056;-71
2023/01/10 01:03:40;;;;;;;19.42;5.30;;;;;;;5.16;100.00;101146.09;4987928;28;20580;-71
2023/01/10 01:06:06;;;;;;;14.48;3.60;;;;;;;5.24;100.00;101143.19;5015564;28;20053;-72
2023/01/10 01:08:32;;;;;;;17.33;3.63;;;;;;;5.28;100.00;101154.53;5025516;28;20045;-71
2023/01/10 01:10:57;;;;;;;23.65;4.78;;;;;;;5.26;100.00;101156.34;5032292;28;20098;-71
2023/01/10 01:13:23;;;;;;;20.27;4.03;;;;;;;5.32;100.00;101154.38;5038470;28;20053;-72
2023/01/10 01:15:48;;;;;;;23.02;3.67;;;;;;;5.34;100.00;101171.03;5031612;28;20042;-72
2023/01/10 01:18:19;;;;;;;18.83;4.18;;;;;;;5.42;100.00;101168.09;5032412;28;20076;-71
2023/01/10 01:20:46;;;;;;;19.35;3.63;;;;;;;5.41;100.00;101172.50;5031006;28;20076;-71
2023/01/10 01:23:13;;;;;;;19.25;4.38;;;;;;;5.41;100.00;101180.44;5031661;28;20131;-72
2023/01/10 01:25:39;;;;;;;27.92;4.72;;;;;;;5.46;100.00;101177.63;5030188;28;20769;-71
2023/01/10 01:28:05;;;;;;;39.72;4.68;;;;;;;5.46;100.00;101182.94;5018838;28;20041;-72
2023/01/10 01:30:30;;;;;;;11.98;3.17;;;;;;;5.42;100.00;101192.78;5034626;28;20053;-71
2023/01/10 01:32:56;;;;;;;16.77;4.07;;;;;;;5.27;100.00;101185.41;5012724;28;20112;-71
2023/01/10 01:35:21;;;;;;;18.02;4.30;;;;;;;5.37;100.00;101189.44;5039067;28;20077;-72
2023/01/10 01:37:47;;;;;;;16.67;3.78;;;;;;;5.34;100.00;101192.19;5037158;28;20041;-72
2023/01/10 01:40:14;;;;;;;15.45;3.28;;;;;;;5.32;100.00;101201.06;5001323;28;20124;-72
2023/01/10 01:42:42;;;;;;;16.60;4.18;;;;;;;5.35;100.00;101193.03;5013826;28;20049;-72
2023/01/10 01:45:07;;;;;;;14.95;3.17;;;;;;;5.31;100.00;101202.00;5033722;28;20053;-71
2023/01/10 01:47:40;;;;;;;23.65;4.35;;;;;;;5.23;100.00;101212.84;5028578;28;20049;-71
2023/01/10 01:50:12;;;;;;;20.27;5.05;;;;;;;5.20;100.00;101210.31;5032627;28;20069;-72
2023/01/10 01:52:38;;;;;;;;;;;;;;;5.14;100.00;101215.81;5019469;28;20503;-72
2023/01/10 01:55:05;;;;;;;23.67;4.32;;;;;;;5.17;100.00;101218.34;5024893;28;20011;-72
2023/01/10 01:57:32;;;;;;;16.25;3.40;;;;;;;5.16;100.00;101225.41;5011248;28;20688;-71
2023/01/10 02:00:00;;;;;;;17.60;3.75;;;;;;;5.28;100.00;101224.13;5025156;28;20100;-72
2023/01/10 02:02:41;;;;;;;26.58;4.70;;;;;;;5.13;100.00;101227.31;5027933;28;20410;-72
2023/01/10 02:05:12;;;;;;;13.35;3.13;;;;;;;5.15;100.00;101234.25;5037582;28;20044;-71
2023/01/10 02:07:44;;;;;;;21.67;4.15;;;;;;;5.16;100.00;101230.69;5037976;28;20095;-71
2023/01/10 02:10:22;;;;;;;15.70;3.15;;;;;;;5.06;100.00;101237.22;5034476;28;20495;-72
2023/01/10 02:12:52;;;;;;;22.42;4.35;;;;;;;5.05;100.00;101248.72;5037064;28;20053;-71
2023/01/10 02:15:18;;;;;;;25.17;4.80;;;;;;;5.08;100.00;101247.75;5031647;28;20052;-71
2023/01/10 02:17:47;;;;;;;33.53;4.75;;;;;;;5.04;100.00;101246.13;5026959;28;20056;-71
2023/01/10 02:20:13;;;;;;;21.05;2.85;;;;;;;5.01;100.00;101243.56;5010993;28;20088;-71
2023/01/10 02:23:04;;;;;;;16.90;3.40;;;;;;;4.96;100.00;101240.22;5037578;28;20080;-71
2023/01/10 02:25:48;;;;;;;31.63;7.00;;;;;;;4.93;100.00;101250.00;5026710;28;20056;-71
2023/01/10 02:28:38;;;;;;;17.25;3.20;;;;;;;4.89;100.00;101258.06;5031877;28;20047;-71
2023/01/10 02:31:15;;;;;;;18.45;2.67;;;;;;;4.99;100.00;101259.50;5030368;28;20045;-71
2023/01/10 02:34:02;;;;;;;17.65;2.70;;;;;;;5.11;100.00;101264.34;5036144;28;20042;-71
2023/01/10 02:36:37;;;;;;;11.48;3.30;;;;;;;5.18;100.00;101265.88;5005802;28;20045;-71
2023/01/10 02:39:05;;;;;;;19.77;3.60;;;;;;;5.25;100.00;101273.59;5034109;28;20121;-71
2023/01/10 02:42:09;;;;;;;15.75;3.13;;;;;;;5.29;100.00;101270.81;5033397;28;20111;-71
2023/01/10 02:45:00;;;;;;;22.92;3.42;;;;;;;5.27;100.00;101277.94;4953809;28;20074;-71
2023/01/10 02:47:26;;;;;;;25.55;3.53;;;;;;;5.27;100.00;101277.03;4951917;28;20164;-71
2023/01/10 02:49:51;;;;;;;13.75;2.63;;;;;;;5.21;100.00;101280.75;4939129;28;20737;-71
2023/01/10 02:52:22;;;;;;;16.83;4.60;;;;;;;5.27;100.00;101282.34;4944386;28;20102;-72
2023/01/10 02:54:50;;;;;;;20.30;3.88;;;;;;;5.28;100.00;101284.94;4940883;28;20051;-71
2023/01/10 02:57:53;;;;;;;18.50;3.22;;;;;;;5.31;100.00;101283.97;4958321;28;20054;-71
2023/01/10 03:00:44;;;;;;;;;;;;;;;5.32;100.00;101298.91;4956867;28;20058;-71
2023/01/10 03:03:26;;;;;;;14.43;3.63;;;;;;;5.28;100.00;101294.66;4951271;28;19922;-72
2023/01/10 03:05:55;;;;;;;24.30;4.53;;;;;;;5.30;100.00;101300.75;4957511;28;20042;-72
2023/01/10 03:08:29;;;;;;;28.52;4.57;;;;;;;5.27;100.00;101295.56;4957662;28;20055;-72
2023/01/10 03:11:01;;;;;;;17.50;4.10;;;;;;;5.18;100.00;101296.75;4958586;28;20415;-73
2023/01/10 03:13:52;;;;;;;15.98;3.88;;;;;;;5.13;100.00;101296.03;4958348;28;20105;-71
2023/01/10 03:16:25;;;;;;;19.90;5.35;;;;;;;5.19;100.00;101294.03;4958519;28;20047;-72
2023/01/10 03:18:57;;;;;;;16.92;4.15;;;;;;;5.24;100.00;101299.19;4959593;28;20098;-71
2023/01/10 03:21:24;;;;;;;29.55;4.25;;;;;;;5.27;100.00;101312.31;5033756;28;20060;-71
2023/01/10 03:23:53;;;;;;;11.55;3.22;;;;;;;5.25;100.00;101315.91;5029202;28;20505;-72
2023/01/10 03:26:45;;;;;;;12.88;3.63;;;;;;;5.32;100.00;101320.06;5021767;28;20045;-71
2023/01/10 03:29:14;;;;;;;25.33;4.30;;;;;;;5.19;100.00;101323.13;5033984;28;20084;-72
2023/01/10 03:32:04;;;;;;;22.95;5.50;;;;;;;5.29;100.00;101328.97;5036939;28;20052;-72
2023/01/10 03:34:31;;;;;;;28.80;5.55;;;;;;;5.29;100.00;101336.03;5011272;28;20051;-71
2023/01/10 03:37:09;;;;;;;15.27;4.65;;;;;;;5.31;100.00;101342.13;5040542;28;20124;-72
2023/01/10 03:39:49;;;;;;;22.75;4.78;;;;;;;5.24;100.00;101336.19;5041104;28;20061;-72
2023/01/10 03:44:42;;;;;;;20.08;4.80;;;;;;;5.25;100.00;101342.34;5037421;28;20049;-72
2023/01/10 03:45:42;;;;;;;26.40;5.93;;;;;;;5.24;100.00;101356.47;5039489;28;20501;-71
2023/01/10 03:48:11;;;;;;;14.43;6.47;;;;;;;5.25;100.00;101351.13;5035435;28;20051;-73
2023/01/10 03:50:37;;;;;;;33.47;6.43;;;;;;;5.24;100.00;101360.00;5042615;28;20056;-71
2023/01/10 03:53:04;;;;;;;28.73;6.78;;;;;;;5.11;100.00;101356.88;5037935;28;20052;-71
2023/01/10 03:55:30;;;;;;;33.00;8.45;;;;;;;5.12;100.00;101355.09;5042731;28;20037;-71
2023/01/10 03:57:56;;;;;;;21.25;6.47;;;;;;;5.02;100.00;101354.56;5032048;28;20050;-71
2023/01/10 04:00:21;;;;;;;18.25;6.93;;;;;;;4.97;100.00;101363.50;5039219;28;20071;-72
2023/01/10 04:02:47;;;;;;;24.73;6.93;;;;;;;4.89;100.00;101355.84;5040015;28;20187;-71
2023/01/10 04:05:12;;;;;;;30.80;8.10;;;;;;;4.87;100.00;101368.22;5036329;28;20118;-71
2023/01/10 04:07:38;;;;;;;27.05;7.18;;;;;;;4.76;100.00;101368.56;5034603;28;20096;-72
2023/01/10 04:10:04;;;;;;;34.75;8.23;;;;;;;4.85;100.00;101375.34;5041672;28;20041;-71
2023/01/10 04:12:30;;;;;;;35.70;8.18;;;;;;;4.80;100.00;101372.84;5023552;28;20773;-72
2023/01/10 04:14:55;;;;;;;29.02;8.43;;;;;;;4.76;100.00;101365.06;5025315;28;20042;-72
2023/01/10 04:17:21;;;;;;;25.98;7.53;;;;;;;4.70;100.00;101366.09;5006688;28;20037;-72
2023/01/10 04:19:46;;;;;;;22.58;8.05;;;;;;;4.56;100.00;101363.00;5030404;28;20391;-71
2023/01/10 04:22:12;;;;;;;27.58;8.10;;;;;;;4.61;100.00;101363.75;5033959;28;20091;-71
2023/01/10 04:24:37;;;;;;;38.25;9.48;;;;;;;4.57;100.00;101367.41;5037307;28;20049;-71
2023/01/10 04:27:03;;;;;;;21.33;7.80;;;;;;;4.39;100.00;101380.22;5034718;28;20052;-72
2023/01/10 04:29:29;;;;;;;36.58;9.25;;;;;;;4.49;100.00;101374.69;5040790;28;20064;-71
2023/01/10 04:31:55;;;;;;;27.50;9.20;;;;;;;4.46;100.00;101382.69;5022909;28;20161;-71
2023/01/10 04:34:20;;;;;;;22.40;8.93;;;;;;;4.44;100.00;101387.16;5012069;28;20457;-71
2023/01/10 04:36:47;;;;;;;29.13;8.85;;;;;;;4.48;100.00;101389.66;5037130;28;20041;-71
2023/01/10 04:39:12;;;;;;;40.10;10.75;;;;;;;4.53;100.00;101392.19;5036321;28;20692;-71
2023/01/10 04:41:38;;;;;;;29.98;8.50;;;;;;;4.58;100.00;101392.91;5036676;28;20041;-71
2023/01/10 04:44:04;;;;;;;24.70;9.00;;;;;;;4.66;100.00;101398.81;5034525;28;20053;-72
2023/01/10 04:46:29;;;;;;;32.17;8.15;;;;;;;4.72;100.00;101397.75;5029820;28;20056;-71
2023/01/10 04:48:55;;;;;;;42.08;8.30;;;;;;;4.74;100.00;101396.81;5026162;28;20048;-71
2023/01/10 04:51:20;;;;;;;31.25;8.48;;;;;;;4.79;100.00;101405.47;5035197;28;20084;-71
2023/01/10 04:53:46;;;;;;;29.13;8.40;;;;;;;4.78;100.00;101402.88;5036373;28;20091;-71
2023/01/10 04:56:17;;;;;;;21.13;7.22;;;;;;;4.81;100.00;101403.63;5034158;28;20777;-71
2023/01/10 04:58:42;;;;;;;27.75;7.53;;;;;;;4.72;100.00;101411.84;5014094;28;20046;-71
2023/01/10 05:01:10;;;;;;;39.45;8.57;;;;;;;4.67;100.00;101419.06;4994936;28;20034;-71
2023/01/10 05:03:36;;;;;;;37.55;8.05;;;;;;;4.66;100.00;101426.06;4995950;28;20054;-71
2023/01/10 05:06:02;;;;;;;36.40;8.85;;;;;;;4.59;100.00;101429.81;4978204;28;20053;-72
2023/01/10 05:08:27;;;;;;;28.20;7.45;;;;;;;4.66;100.00;101436.66;4985019;28;20046;-71
2023/01/10 05:10:53;;;;;;;31.70;8.02;;;;;;;4.41;100.00;101438.25;4998439;28;20904;-71
2023/01/10 05:13:18;;;;;;;34.45;8.25;;;;;;;4.38;100.00;101433.09;4993092;28;20050;-71
2023/01/10 05:15:44;;;;;;;29.92;7.35;;;;;;;4.48;100.00;101445.13;4999187;28;20050;-71
2023/01/10 05:18:09;;;;;;;24.90;6.68;;;;;;;4.41;100.00;101452.31;4992524;28;20050;-71
2023/01/10 05:20:34;;;;;;;29.63;8.30;;;;;;;4.59;100.00;101444.81;5008129;28;20057;-71
2023/01/10 05:23:00;;;;;;;33.92;7.68;;;;;;;4.75;100.00;101454.00;4999747;28;20612;-72
2023/01/10 05:25:26;;;;;;;28.70;8.02;;;;;;;4.82;100.00;101452.03;4989088;28;20041;-72
2023/01/10 05:27:52;;;;;;;33.80;10.25;;;;;;;4.93;100.00;101453.47;4992598;28;20033;-71
2023/01/10 05:30:17;;;;;;;37.10;7.70;;;;;;;5.09;100.00;101445.94;4984241;28;20522;-71
2023/01/10 05:32:43;;;;;;;35.63;8.48;;;;;;;5.23;100.00;101444.66;4994629;28;20142;-71
2023/01/10 05:35:08;;;;;;;36.42;7.40;;;;;;;5.30;100.00;101452.31;4992053;28;20120;-71
2023/01/10 05:37:34;;;;;;;29.00;7.07;;;;;;;5.27;100.00;101446.25;4991280;28;20049;-71
2023/01/10 05:40:00;;;;;;;25.00;6.00;;;;;;;5.33;100.00;101444.31;4993537;28;20062;-71
2023/01/10 05:42:25;;;;;;;27.02;6.97;;;;;;;5.12;100.00;101445.84;4993522;28;20054;-72
2023/01/10 05:44:50;;;;;;;21.15;6.18;;;;;;;5.22;100.00;101454.38;4998621;28;20053;-71
2023/01/10 05:47:16;;;;;;;42.92;6.25;;;;;;;5.32;100.00;101458.44;4990229;28;20054;-71
2023/01/10 05:49:41;;;;;;;31.45;6.55;;;;;;;5.20;100.00;101469.38;4992361;28;20182;-71
2023/01/10 05:52:07;;;;;;;23.45;6.75;;;;;;;5.36;100.00;101477.69;4995034;28;20513;-71
2023/01/10 05:54:32;;;;;;;29.92;6.05;;;;;;;5.27;100.00;101488.56;4991830;28;20046;-72
2023/01/10 05:56:58;;;;;;;36.63;6.95;;;;;;;5.32;100.00;101495.47;4994581;28;20056;-72
2023/01/10 05:59:23;;;;;;;27.00;7.75;;;;;;;5.35;100.00;101500.66;5030210;28;20049;-71
2023/01/10 06:01:49;;;;;;;28.98;7.80;;;;;;;5.26;100.00;101508.84;5033636;28;20049;-72
2023/01/10 06:04:14;;;;;;;33.78;7.78;;;;;;;5.27;100.00;101501.78;5014896;28;20041;-71
2023/01/10 06:06:40;;;;;;;29.13;9.77;;;;;;;5.11;100.00;101489.03;5027271;28;20041;-72
2023/01/10 06:09:05;;;;;;;33.42;7.63;;;;;;;5.22;100.00;101501.94;5031400;28;20550;-72
2023/01/10 06:11:35;;;;;;;30.77;7.95;;;;;;;5.20;100.00;101514.34;5039759;28;20414;-72
2023/01/10 06:14:01;;;;;;;37.97;7.40;;;;;;;5.04;100.00;101521.00;5019101;28;20159;-71
2023/01/10 06:16:26;;;;;;;30.80;8.00;;;;;;;5.13;100.00;101524.25;5032439;28;20091;-71
2023/01/10 06:18:51;;;;;;;33.85;6.93;;;;;;;5.14;100.00;101520.69;5036347;28;20052;-72
2023/01/10 06:21:17;;;;;;;30.10;8.10;;;;;;;5.21;100.00;101516.06;5015039;28;20049;-72
2023/01/10 06:23:42;;;;;;;36.55;8.45;;;;;;;5.19;100.00;101524.03;5019843;28;20041;-71
2023/01/10 06:26:08;;;;;;;36.80;8.63;;;;;;;5.22;100.00;101527.50;5035502;28;20437;-72
2023/01/10 06:28:34;;;;;;;25.20;6.65;;;;;;;5.13;100.00;101533.94;5035851;28;20045;-71
2023/01/10 06:30:59;;;;;;;30.55;7.93;;;;;;;5.11;100.00;101533.97;5036602;28;20049;-72
2023/01/10 06:33:25;;;;;;;31.92;8.60;;;;;;;5.13;100.00;101532.16;5030236;28;20103;-72
2023/01/10 06:35:51;;;;;;;34.90;7.22;;;;;;;5.06;100.00;101535.03;5033313;28;20051;-71
2023/01/10 06:38:17;;;;;;;33.67;8.13;;;;;;;5.05;100.00;101538.59;5026172;28;20049;-72
2023/01/10 06:40:42;;;;;;;32.20;8.15;;;;;;;5.12;100.00;101550.69;5027219;28;20037;-72
2023/01/10 06:43:08;;;;;;;39.38;7.65;;;;;;;5.09;100.00;101553.44;5038023;28;20060;-71
2023/01/10 06:45:33;;;;;;;27.30;7.95;;;;;;;5.17;100.00;101554.06;5031877;28;20807;-71
2023/01/10 06:47:59;;;;;;;32.15;8.52;;;;;;;5.16;100.00;101553.22;5027633;28;20619;-71
2023/01/10 06:50:24;;;;;;;29.08;7.20;;;;;;;5.14;100.00;101554.19;5012206;28;20077;-71
2023/01/10 06:52:57;;;;;;;39.20;7.30;;;;;;;5.14;100.00;101557.69;5013712;28;20049;-72
2023/01/10 06:55:23;;;;;;;37.50;7.22;;;;;;;5.01;100.00;101568.66;5030892;28;20059;-72
2023/01/10 06:57:54;;;;;;;31.67;8.57;;;;;;;4.96;100.00;101576.72;5034021;28;20052;-72
2023/01/10 07:00:20;;;;;;;43.83;8.10;;;;;;;4.94;100.00;101579.41;5040269;28;20054;-72
2023/01/10 07:02:45;;;;;;;39.85;8.65;;;;;;;4.96;100.00;101587.28;5028090;28;20041;-71
2023/01/10 07:05:11;;;;;;;35.83;8.10;;;;;;;5.09;100.00;101593.09;5035481;28;20056;-71
2023/01/10 07:07:37;;;;;;;39.05;7.60;;;;;;;5.02;100.00;101586.22;5031832;28;20095;-71
2023/01/10 07:10:03;;;;;;;37.80;9.13;;;;;;;5.18;100.00;101591.06;5020607;28;20049;-71
2023/01/10 07:12:29;;;;;;;43.35;8.52;;;;;;;5.14;100.00;101585.91;5036316;28;20044;-71
2023/01/10 07:14:54;;;;;;;39.28;9.05;;;;;;;5.06;100.00;101582.59;5032877;28;20560;-71
2023/01/10 07:17:20;;;;;;;39.17;9.05;;;;;;;5.12;100.00;101588.59;5041552;28;20090;-72
2023/01/10 07:19:45;;;;;;;35.50;7.45;;;;;;;5.33;100.00;101588.88;5029964;28;20050;-72
2023/01/10 07:22:11;;;;;;;49.20;8.32;;;;;;;5.33;100.00;101583.59;5037505;28;20584;-71
2023/01/10 07:24:36;;;;;;;24.98;6.43;;;;;;;5.25;100.00;101582.94;5035827;28;20072;-72
2023/01/10 07:27:02;;;;;;;24.42;5.47;;;;;;;5.29;100.00;101595.16;5032470;28;20096;-71
2023/01/10 07:29:27;;;;;;;37.15;7.25;;;;;;;5.18;100.00;101598.13;5019651;28;20045;-71
2023/01/10 07:31:53;;;;;;;37.65;8.05;;;;;;;5.28;100.00;101604.03;5041762;28;20750;-71
2023/01/10 07:34:18;;;;;;;28.58;6.78;;;;;;;5.16;100.00;101607.84;5024047;28;20049;-72
2023/01/10 07:36:44;;;;;;;36.95;6.65;;;;;;;5.21;100.00;101616.53;5040736;28;20052;-72
2023/01/10 07:39:10;;;;;;;28.85;6.07;;;;;;;5.26;100.00;101616.41;5018979;28;20041;-72
2023/01/10 07:41:35;;;;;;;32.45;6.18;;;;;;;5.20;100.00;101618.31;5037126;28;20041;-71
2023/01/10 07:44:01;;;;;;;34.88;6.63;;;;;;;5.34;100.00;101625.00;5037185;28;20037;-72
2023/01/10 07:46:27;;;;;;;48.75;6.88;;;;;;;5.33;100.00;101616.19;5041503;28;20049;-71
2023/01/10 07:48:52;;;;;;;35.17;6.25;;;;;;;5.19;100.00;101626.28;5019538;28;20055;-70
2023/01/10 07:51:18;;;;;;;29.85;5.75;;;;;;;5.25;100.00;101619.97;5037363;28;20803;-73
2023/01/10 07:53:43;;;;;;;40.45;6.93;;;;;;;5.41;100.00;101637.97;5032006;28;20049;-71
2023/01/10 07:56:09;;;;;;;40.17;5.75;;;;;;;5.41;100.00;101659.13;5036412;28;20090;-71
2023/01/10 07:58:34;;;;;;;31.02;7.53;;;;;;;5.36;100.00;101644.31;5030786;28;20499;-73
2023/01/10 08:01:02;;;;;;;29.15;6.20;;;;;;;5.20;100.00;101655.31;5008467;28;20037;-71
2023/01/10 08:03:32;;;;;;;40.53;7.38;;;;;;;5.32;100.00;101656.78;5020410;28;20080;-71
2023/01/10 08:05:59;;;;;;;38.78;6.60;;;;;;;5.47;100.00;101658.06;5036547;28;20046;-71
2023/01/10 08:08:24;;;;;;;41.60;7.60;;;;;;;5.27;100.00;101661.31;5034479;28;20395;-71
2023/01/10 08:10:50;;;;;;;32.28;6.22;;;;;;;5.23;100.00;101664.97;5042344;28;20095;-71
2023/01/10 08:13:15;;;;;;;37.30;8.35;;;;;;;5.26;100.00;101667.50;5029767;28;20180;-71
2023/01/10 08:15:41;;;;;;;34.42;6.50;;;;;;;5.20;100.00;101657.97;5034011;28;20052;-71
2023/01/10 08:18:06;;;;;;;19.52;5.60;;;;;;;5.20;100.00;101671.19;5031820;28;20052;-70
2023/01/10 08:20:32;;;;;;;39.92;7.18;;;;;;;5.15;100.00;101666.94;5010307;28;20052;-71
2023/01/10 08:22:58;;;;;;;28.73;6.10;;;;;;;5.14;100.00;101670.50;5032554;28;20037;-71
2023/01/10 08:25:24;;;;;;;42.40;7.63;;;;;;;5.14;100.00;101675.78;5025300;28;20050;-71
2023/01/10 08:27:50;;;;;;;35.85;6.72;;;;;;;5.03;100.00;101675.22;5036358;28;20053;-71
2023/01/10 08:30:16;;;;;;;32.72;6.72;;;;;;;5.11;100.00;101675.84;5041702;28;20064;-71
2023/01/10 08:32:41;;;;;;;37.88;7.30;;;;;;;5.07;100.00;101676.84;5040911;28;20049;-70
2023/01/10 08:35:07;;;;;;;35.88;6.28;;;;;;;5.12;100.00;101678.47;5040374;28;20041;-70
2023/01/10 08:37:33;;;;;;;38.90;7.90;;;;;;;5.17;100.00;101680.97;5011268;28;20075;-70
2023/01/10 08:39:59;;;;;;;47.63;7.57;;;;;;;5.37;100.00;101677.75;5036958;28;20048;-70
2023/01/10 08:42:25;;;;;;;47.28;6.82;;;;;;;5.34;100.00;101670.81;5034207;28;20102;-70
2023/01/10 08:44:50;;;;;;;34.90;6.03;;;;;;;5.41;100.00;101671.50;5041091;28;20090;-70
2023/01/10 08:47:15;;;;;;;30.48;6.68;;;;;;;5.40;100.00;101662.69;5018990;28;20053;-73
2023/01/10 08:49:41;;;;;;;39.83;6.93;;;;;;;5.51;100.00;101664.16;5021631;28;20090;-70
2023/01/10 08:52:06;;;;;;;28.40;6.38;;;;;;;5.62;100.00;101664.69;5030621;28;20045;-70
2023/01/10 08:54:32;;;;;;;29.75;6.80;;;;;;;5.63;100.00;101661.16;5023383;28;20053;-71
2023/01/10 08:56:58;;;;;;;25.73;6.18;;;;;;;5.73;100.00;101657.34;5035154;28;20064;-70
2023/01/10 08:59:23;;;;;;;31.42;6.25;;;;;;;5.76;100.00;101656.34;5029901;28;20048;-71
2023/01/10 09:01:49;;;;;;;21.95;6.30;;;;;;;5.85;100.00;101656.94;5034728;28;20037;-71
2023/01/10 09:04:15;;;;;;;35.33;9.80;;;;;;;6.03;100.00;101652.91;5025938;28;20087;-71
2023/01/10 09:06:41;;;;;;;37.13;6.13;;;;;;;6.21;100.00;101651.44;5003457;28;20037;-71
2023/01/10 09:09:08;;;;;;;31.10;6.80;;;;;;;6.12;100.00;101660.53;5022788;28;20949;-71
2023/01/10 09:11:34;;;;;;;24.65;5.13;;;;;;;6.19;100.00;101656.78;5041538;28;20045;-70
2023/01/10 09:13:59;;;;;;;35.45;7.00;;;;;;;5.96;100.00;101660.16;5029935;28;20063;-72
2023/01/10 09:16:25;;;;;;;34.95;5.57;;;;;;;6.07;100.00;101653.66;5030217;28;20059;-70
2023/01/10 09:18:50;;;;;;;28.65;7.68;;;;;;;6.03;100.00;101654.69;5030407;28;20041;-70
2023/01/10 09:21:16;;;;;;;41.50;5.43;;;;;;;6.05;100.00;101666.09;5039213;28;20282;-70
2023/01/10 09:23:42;;;;;;;31.27;5.00;;;;;;;6.00;100.00;101660.06;5037482;28;20052;-70
2023/01/10 09:26:08;;;;;;;46.75;7.40;;;;;;;6.07;100.00;101667.75;5036692;28;20098;-70
2023/01/10 09:28:33;;;;;;;38.85;5.93;;;;;;;6.09;100.00;101658.00;5040769;28;20045;-70
2023/01/10 09:31:00;;;;;;;21.98;5.97;;;;;;;6.09;100.00;101663.31;5014780;28;20037;-73
2023/01/10 09:33:25;;;;;;;28.00;4.82;;;;;;;6.48;100.00;101660.28;5034666;28;20144;-70
2023/01/10 09:35:51;;;;;;;35.55;6.28;;;;;;;6.30;100.00;101663.53;5035363;28;20919;-71
2023/01/10 09:38:18;;;;;;;27.85;5.43;;;;;;;6.38;100.00;101662.38;5008057;28;20056;-73
2023/01/10 09:40:55;;;;;;;40.47;8.15;;;;;;;6.47;100.00;101655.88;5032863;28;20529;-71
2023/01/10 09:43:43;;;;;;;34.83;5.15;;;;;;;6.57;100.00;101659.94;5019400;28;20138;-71
2023/01/10 09:46:17;;;;;;;26.27;5.13;;;;;;;6.57;100.00;101657.31;5019856;28;20040;-71
2023/01/10 09:48:49;;;;;;;29.83;5.95;;;;;;;6.55;100.00;101659.16;5010649;28;20849;-71
2023/01/10 09:51:32;;;;;;;31.52;7.90;;;;;;;6.52;100.00;101661.03;5011781;28;20186;-71
2023/01/10 09:53:59;;;;;;;;;;;;;;;6.60;100.00;101659.00;5034853;28;20398;-72
2023/01/10 09:56:27;;;;;;;29.17;5.05;;;;;;;6.51;100.00;101651.34;5038371;28;19917;-71
2023/01/10 09:58:53;;;;;;;27.50;5.28;;;;;;;6.63;100.00;101650.97;5037768;28;20045;-71
2023/01/10 10:01:24;;;;;;;37.83;6.85;;;;;;;6.62;100.00;101659.81;5038323;28;20781;-71
2023/01/10 10:04:09;;;;;;;26.67;5.22;;;;;;;6.58;100.00;101650.25;5016983;28;20045;-71
2023/01/10 10:06:34;;;;;;;35.83;5.57;;;;;;;6.68;100.00;101643.72;5022335;28;20049;-71
2023/01/10 10:09:00;;;;;;;44.33;7.82;;;;;;;6.61;100.00;101650.13;5021969;28;20049;-70
2023/01/10 10:11:25;;;;;;;28.52;4.97;;;;;;;6.64;100.00;101639.44;5040481;28;20131;-71
2023/01/10 10:14:06;;;;;;;27.88;5.30;;;;;;;6.89;100.00;101644.75;5033518;28;20037;-71
2023/01/10 10:16:56;;;;;;;45.40;7.32;;;;;;;6.70;100.00;101645.38;5008208;28;20175;-71
2023/01/10 10:19:25;;;;;;;25.73;5.50;;;;;;;6.69;100.00;101653.41;5016925;28;20551;-71
2023/01/10 10:21:50;;;;;;;29.17;5.70;;;;;;;6.68;100.00;101649.88;5040016;28;20041;-72
2023/01/10 10:24:37;;;;;;;25.92;5.93;;;;;;;6.68;100.00;101657.84;5040156;28;20090;-71
2023/01/10 10:27:15;;;;;;;25.25;5.50;;;;;;;6.70;100.00;101645.38;5021987;28;20044;-71
2023/01/10 10:29:49;;;;;;;34.13;5.50;;;;;;;6.71;100.00;101646.25;5039615;28;20660;-72
2023/01/10 10:32:45;;;;;;;33.35;7.43;;;;;;;6.65;100.00;101647.31;5037577;28;20063;-69
2023/01/10 10:35:16;;;;;;;30.83;5.55;;;;;;;6.65;100.00;101639.38;5023477;28;20148;-70
2023/01/10 10:37:49;;;;;;;28.65;5.47;;;;;;;6.67;100.00;101636.66;5013728;28;20044;-73
2023/01/10 10:40:26;;;;;;;30.67;4.93;;;;;;;6.80;100.00;101635.31;5037985;28;20053;-72
2023/01/10 10:42:54;;;;;;;20.55;6.07;;;;;;;6.71;100.00;101633.00;5019170;28;20044;-72
2023/01/10 10:45:42;;;;;;;38.50;8.18;;;;;;;6.86;100.00;101628.94;5043984;28;20087;-73
2023/01/10 10:48:28;;;;;;;29.70;5.40;;;;;;;6.72;100.00;101622.31;5044071;28;20464;-72
2023/01/10 10:51:31;;;;;;;33.58;4.93;;;;;;;6.79;100.00;101619.50;5041053;28;20087;-72
2023/01/10 10:53:57;;;;;;;16.95;4.28;;;;;;;6.98;100.00;101605.53;5036890;28;20047;-72
2023/01/10 10:56:25;;;;;;;29.17;6.28;;;;;;;6.98;100.00;101604.66;5009571;28;20046;-73
2023/01/10 10:58:54;;;;;;;29.88;6.13;;;;;;;7.05;100.00;101605.28;5029849;28;20069;-73
2023/01/10 11:01:21;;;;;;;39.42;5.40;;;;;;;6.93;100.00;101601.31;5018319;28;20041;-73
2023/01/10 11:03:59;;;;;;;25.02;5.63;;;;;;;7.06;100.00;101607.88;5014828;28;20565;-72
2023/01/10 11:06:29;;;;;;;28.30;6.40;;;;;;;7.07;100.00;101606.94;5012468;28;20502;-73
2023/01/10 11:08:58;;;;;;;32.17;8.40;;;;;;;7.06;100.00;101607.88;5018634;28;20153;-71
2023/01/10 11:11:27;;;;;;;31.80;5.38;;;;;;;7.13;100.00;101608.50;5014172;28;20144;-73
2023/01/10 11:14:05;;;;;;;30.63;5.70;;;;;;;7.25;100.00;101600.13;5012772;28;20148;-72
2023/01/10 11:16:35;;;;;;;27.35;4.70;;;;;;;7.10;100.00;101590.06;5026812;28;20486;-73
2023/01/10 11:19:23;;;;;;;20.70;4.60;;;;;;;7.09;100.00;101604.25;5034006;28;20048;-73
2023/01/10 11:21:56;;;;;;;45.20;6.63;;;;;;;7.27;100.00;101601.78;5010541;28;20778;-73
2023/01/10 11:24:32;;;;;;;21.52;4.70;;;;;;;7.15;100.00;101596.94;5016108;28;20041;-71
2023/01/10 11:27:02;;;;;;;19.98;5.72;;;;;;;6.98;100.00;101600.22;5004715;28;20376;-71
2023/01/10 11:29:38;;;;;;;36.15;4.57;;;;;;;6.94;100.00;101590.63;5028891;28;20056;-72
2023/01/10 11:32:17;;;;;;;28.48;4.97;;;;;;;7.06;100.00;101585.81;5012137;28;20490;-71